Time;durP1;ratioP1;P1;durP2;ratioP2;P2;SDS_P1;SDS_P2;PMS_P1;PMS_P2;Temp;Humidity;BMP_temperature;BMP_pressure;BME280_temperature;BME280_humidity;BME280_pressure;Samples;Min_cycle;Max_cycle;Signal;HPM_P1;HPM_P2
2023/10/14 00:01:12;;;;;;;12.90;5.75;;;;;;;;;;4996172;28;20094;-68
2023/10/14 00:03:41;;;;;;;9.80;5.47;;;;;;;;;;4996028;28;20018;-69
2023/10/14 00:06:07;;;;;;;10.02;5.53;;;;;;;;;;4995947;28;20248;-69
2023/10/14 00:08:39;;;;;;;11.57;6.68;;;;;;;;;;4996175;28;20040;-68
2023/10/14 00:11:06;;;;;;;12.15;5.70;;;;;;;;;;4995189;28;20072;-68
2023/10/14 00:13:37;;;;;;;13.85;5.95;;;;;;;;;;4994661;28;20014;-68
2023/10/14 00:16:07;;;;;;;10.93;5.93;;;;;;;;;;4995052;28;20022;-68
2023/10/14 00:18:33;;;;;;;24.60;5.88;;;;;;;;;;4994710;28;20036;-68
2023/10/14 00:20:58;;;;;;;11.80;5.90;;;;;;;;;;4994716;28;20109;-68
2023/10/14 00:23:24;;;;;;;18.63;5.80;;;;;;;;;;4994636;28;20287;-68
2023/10/14 00:25:49;;;;;;;11.48;5.95;;;;;;;;;;4994613;28;20030;-69
2023/10/14 00:28:19;;;;;;;13.18;6.18;;;;;;;;;;4994794;28;20058;-68
2023/10/14 00:30:45;;;;;;;14.48;6.65;;;;;;;;;;4994840;28;20018;-68
2023/10/14 00:33:12;;;;;;;14.05;6.32;;;;;;;;;;4994524;28;20498;-69
2023/10/14 00:35:40;;;;;;;15.63;6.63;;;;;;;;;;4994426;28;20084;-68
2023/10/14 00:38:08;;;;;;;13.93;6.47;;;;;;;;;;4994392;28;20037;-68
2023/10/14 00:40:37;;;;;;;11.05;6.20;;;;;;;;;;4994617;28;20482;-69
2023/10/14 00:43:04;;;;;;;12.70;5.95;;;;;;;;;;4994377;28;20045;-69
2023/10/14 00:45:29;;;;;;;17.60;6.25;;;;;;;;;;4994323;28;20022;-68
2023/10/14 00:47:55;;;;;;;13.73;7.10;;;;;;;;;;4994243;28;20027;-68
2023/10/14 00:50:35;;;;;;;10.90;6.28;;;;;;;;;;4993936;28;20264;-68
2023/10/14 00:53:05;;;;;;;17.77;6.38;;;;;;;;;;4994235;28;20471;-68
2023/10/14 00:55:54;;;;;;;12.77;6.07;;;;;;;;;;4994396;28;20026;-69
2023/10/14 00:58:21;;;;;;;13.63;6.90;;;;;;;;;;4993441;28;20529;-69
2023/10/14 01:00:59;;;;;;;15.93;6.55;;;;;;;;;;4993598;28;20033;-68
2023/10/14 01:03:25;;;;;;;13.82;6.32;;;;;;;;;;4994257;28;20108;-69
2023/10/14 01:05:52;;;;;;;17.73;6.60;;;;;;;;;;4993543;28;20084;-69
2023/10/14 01:08:22;;;;;;;17.13;6.80;;;;;;;;;;4993883;28;20018;-68
2023/10/14 01:10:49;;;;;;;19.95;6.38;;;;;;;;;;4955003;28;1143155;-68
2023/10/14 01:13:15;;;;;;;19.10;6.88;;;;;;;;;;4994978;28;20046;-69
2023/10/14 01:15:46;;;;;;;17.98;5.95;;;;;;;;;;4994741;28;20483;-68
2023/10/14 01:18:14;;;;;;;18.88;6.68;;;;;;;;;;4994672;28;22211;-68
2023/10/14 01:20:39;;;;;;;21.75;6.05;;;;;;;;;;4994678;28;20148;-68
2023/10/14 01:23:07;;;;;;;19.90;6.45;;;;;;;;;;4994890;28;20129;-66
2023/10/14 01:25:33;;;;;;;18.77;6.43;;;;;;;;;;4994446;28;20494;-66
2023/10/14 01:27:59;;;;;;;21.77;6.90;;;;;;;;;;4994406;28;20022;-66
2023/10/14 01:30:32;;;;;;;16.52;6.70;;;;;;;;;;4994395;28;20069;-66
2023/10/14 01:33:12;;;;;;;21.80;6.57;;;;;;;;;;4994098;28;20022;-66
2023/10/14 01:35:42;;;;;;;12.88;6.70;;;;;;;;;;4994299;28;20034;-66
2023/10/14 01:38:07;;;;;;;22.65;6.32;;;;;;;;;;4994272;28;20077;-66
2023/10/14 01:40:36;;;;;;;26.17;7.18;;;;;;;;;;4993966;28;20026;-66
2023/10/14 01:43:08;;;;;;;16.75;6.30;;;;;;;;;;4994300;28;20469;-66
2023/10/14 01:45:42;;;;;;;24.63;7.07;;;;;;;;;;4994460;28;20018;-66
2023/10/14 01:50:44;;;;;;;18.45;6.85;;;;;;;;;;4994283;28;20029;-66
2023/10/14 01:53:12;;;;;;;23.35;7.15;;;;;;;;;;4994371;28;20363;-66
2023/10/14 01:55:41;;;;;;;22.17;6.80;;;;;;;;;;4994268;28;20506;-66
2023/10/14 01:58:10;;;;;;;13.80;6.40;;;;;;;;;;4994330;28;20069;-66
2023/10/14 02:00:39;;;;;;;18.38;6.63;;;;;;;;;;4993800;28;20030;-66
2023/10/14 02:03:08;;;;;;;14.68;6.55;;;;;;;;;;4994015;28;20026;-66
2023/10/14 02:05:42;;;;;;;15.18;6.47;;;;;;;;;;4993981;28;20044;-66
2023/10/14 02:08:16;;;;;;;13.00;6.28;;;;;;;;;;4993829;28;20022;-66
2023/10/14 02:10:46;;;;;;;17.25;5.82;;;;;;;;;;4993858;28;20046;-66
2023/10/14 02:13:12;;;;;;;19.50;6.78;;;;;;;;;;4994148;28;20029;-66
2023/10/14 02:15:38;;;;;;;14.13;5.93;;;;;;;;;;4999153;28;20038;-66
2023/10/14 02:18:03;;;;;;;17.05;6.20;;;;;;;;;;5000619;28;20027;-66
2023/10/14 02:20:28;;;;;;;27.00;5.80;;;;;;;;;;5000356;28;20475;-66
2023/10/14 02:22:57;;;;;;;18.13;6.17;;;;;;;;;;5000565;28;20022;-66
2023/10/14 02:25:27;;;;;;;14.57;5.72;;;;;;;;;;5000558;28;20717;-66
2023/10/14 02:27:53;;;;;;;22.90;5.80;;;;;;;;;;5000487;28;20022;-66
2023/10/14 02:30:18;;;;;;;15.45;6.05;;;;;;;;;;4999892;28;20502;-66
2023/10/14 02:32:43;;;;;;;15.88;6.13;;;;;;;;;;5000387;28;20097;-66
2023/10/14 02:35:09;;;;;;;13.63;6.03;;;;;;;;;;5000259;28;20096;-66
2023/10/14 02:37:34;;;;;;;21.40;5.53;;;;;;;;;;5000224;28;20302;-66
2023/10/14 02:39:59;;;;;;;14.23;4.80;;;;;;;;;;4999920;28;20252;-66
2023/10/14 02:42:25;;;;;;;12.10;4.95;;;;;;;;;;5000017;28;20256;-66
2023/10/14 02:44:53;;;;;;;16.75;4.50;;;;;;;;;;4998569;28;20018;-66
2023/10/14 02:47:21;;;;;;;10.32;4.70;;;;;;;;;;4998816;28;20117;-66
2023/10/14 02:50:04;;;;;;;14.85;5.03;;;;;;;;;;4999997;28;20026;-66
2023/10/14 02:52:30;;;;;;;14.13;5.22;;;;;;;;;;5000072;28;20479;-66
2023/10/14 02:55:10;;;;;;;13.70;5.60;;;;;;;;;;4999869;28;20089;-66
2023/10/14 02:57:35;;;;;;;19.98;5.53;;;;;;;;;;4999817;28;20057;-66
2023/10/14 03:00:00;;;;;;;11.80;4.93;;;;;;;;;;5000210;28;20050;-66
2023/10/14 03:02:27;;;;;;;12.57;4.90;;;;;;;;;;4999976;28;20244;-66
2023/10/14 03:07:46;;;;;;;12.00;4.38;;;;;;;;;;4999973;28;20030;-66
2023/10/14 03:10:18;;;;;;;12.30;3.90;;;;;;;;;;4999583;28;20077;-66
2023/10/14 03:12:48;;;;;;;9.57;3.72;;;;;;;;;;4999885;28;20029;-66
2023/10/14 03:15:20;;;;;;;9.65;4.07;;;;;;;;;;4999880;28;20360;-66
2023/10/14 03:17:52;;;;;;;;;;;;;;;;;;5000309;28;20077;-66
2023/10/14 03:22:55;;;;;;;11.77;3.60;;;;;;;;;;5000111;28;20034;-66
2023/10/14 03:25:23;;;;;;;11.45;3.60;;;;;;;;;;4998504;28;20030;-66
2023/10/14 03:27:58;;;;;;;12.68;4.07;;;;;;;;;;4995991;28;20030;-66
2023/10/14 03:30:24;;;;;;;13.73;3.33;;;;;;;;;;4996508;28;20077;-66
2023/10/14 03:32:49;;;;;;;14.60;3.60;;;;;;;;;;4996561;28;20054;-66
2023/10/14 03:35:20;;;;;;;16.27;3.30;;;;;;;;;;4996652;28;20241;-66
2023/10/14 03:37:52;;;;;;;7.47;3.20;;;;;;;;;;4996498;28;20018;-66
2023/10/14 03:43:08;;;;;;;8.50;3.03;;;;;;;;;;4996548;28;20009;-68
2023/10/14 03:45:41;;;;;;;;;;;;;;;;;;4997077;28;20492;-69
2023/10/14 03:48:10;;;;;;;8.15;2.50;;;;;;;;;;4996565;28;19960;-69
2023/10/14 03:50:38;;;;;;;10.40;2.42;;;;;;;;;;4996173;28;20525;-68
2023/10/14 03:53:05;;;;;;;12.35;2.88;;;;;;;;;;4996207;28;20025;-69
2023/10/14 03:55:30;;;;;;;17.48;2.83;;;;;;;;;;4995856;28;20359;-69
2023/10/14 03:58:03;;;;;;;12.80;2.75;;;;;;;;;;4996097;28;20026;-68
2023/10/14 04:00:36;;;;;;;11.80;2.65;;;;;;;;;;4996391;28;20041;-69
2023/10/14 04:03:02;;;;;;;12.52;3.22;;;;;;;;;;4996065;28;20030;-69
2023/10/14 04:05:29;;;;;;;12.98;3.20;;;;;;;;;;4995799;28;20018;-69
2023/10/14 04:07:54;;;;;;;13.80;3.45;;;;;;;;;;4996197;28;20026;-69
2023/10/14 04:10:23;;;;;;;9.37;2.60;;;;;;;;;;4995503;28;20113;-68
2023/10/14 04:12:55;;;;;;;10.98;2.85;;;;;;;;;;4995841;28;20034;-69
2023/10/14 04:15:45;;;;;;;11.32;3.28;;;;;;;;;;4996109;28;20019;-69
2023/10/14 04:18:12;;;;;;;10.15;3.10;;;;;;;;;;4996046;28;20026;-69
2023/10/14 04:20:38;;;;;;;11.23;3.10;;;;;;;;;;4995551;28;20089;-69
2023/10/14 04:23:17;;;;;;;10.45;3.15;;;;;;;;;;4995693;28;20034;-69
2023/10/14 04:25:43;;;;;;;9.88;2.72;;;;;;;;;;4995915;28;20022;-69
2023/10/14 04:30:44;;;;;;;13.57;3.20;;;;;;;;;;4995901;28;20015;-69
2023/10/14 04:35:56;;;;;;;14.00;2.93;;;;;;;;;;4995856;28;20101;-69
2023/10/14 04:38:28;;;;;;;16.67;3.17;;;;;;;;;;4995347;28;20022;-69
2023/10/14 04:40:53;;;;;;;10.40;3.10;;;;;;;;;;4995642;28;20026;-69
2023/10/14 04:46:14;;;;;;;13.00;2.90;;;;;;;;;;4995579;28;20026;-69
2023/10/14 04:48:39;;;;;;;16.73;3.05;;;;;;;;;;4975653;28;20272;-69
2023/10/14 04:51:15;;;;;;;14.23;2.65;;;;;;;;;;4976032;28;20050;-69
2023/10/14 04:53:43;;;;;;;10.82;2.95;;;;;;;;;;4993434;28;20390;-66
2023/10/14 04:56:09;;;;;;;10.70;2.63;;;;;;;;;;4994961;28;20029;-66
2023/10/14 04:58:34;;;;;;;6.10;2.03;;;;;;;;;;4995210;28;20101;-66
2023/10/14 05:01:03;;;;;;;7.97;2.35;;;;;;;;;;4994981;28;20090;-66
2023/10/14 05:03:31;;;;;;;9.55;2.42;;;;;;;;;;4994883;28;20030;-66
2023/10/14 05:05:57;;;;;;;8.68;2.03;;;;;;;;;;4994858;28;20494;-66
2023/10/14 05:08:44;;;;;;;5.95;1.50;;;;;;;;;;4994781;28;20014;-66
2023/10/14 05:11:12;;;;;;;9.73;2.05;;;;;;;;;;4994419;28;20150;-66
2023/10/14 05:13:39;;;;;;;8.95;2.08;;;;;;;;;;4994978;28;20029;-66
2023/10/14 05:16:20;;;;;;;6.30;1.60;;;;;;;;;;4994563;28;20025;-66
2023/10/14 05:19:00;;;;;;;13.20;2.30;;;;;;;;;;4994873;28;20368;-66
2023/10/14 05:22:37;;;;;;;10.57;1.60;;;;;;;;;;4994840;28;20030;-66
2023/10/14 05:24:23;;;;;;;9.73;2.03;;;;;;;;;;4985661;28;20041;-66
2023/10/14 05:26:58;;;;;;;12.15;1.83;;;;;;;;;;4994782;28;20019;-66
2023/10/14 05:29:24;;;;;;;9.98;2.05;;;;;;;;;;4994046;28;20390;-66
2023/10/14 05:31:50;;;;;;;10.77;2.17;;;;;;;;;;4994137;28;20019;-66
2023/10/14 05:34:17;;;;;;;11.23;2.40;;;;;;;;;;4994411;28;20037;-66
2023/10/14 05:36:43;;;;;;;13.85;1.77;;;;;;;;;;4994427;28;20053;-66
2023/10/14 05:39:10;;;;;;;9.35;2.28;;;;;;;;;;4994302;28;20050;-66
2023/10/14 05:41:36;;;;;;;8.38;1.88;;;;;;;;;;4994205;28;20026;-66
2023/10/14 05:44:03;;;;;;;6.90;1.70;;;;;;;;;;4994268;28;20014;-66
2023/10/14 05:46:29;;;;;;;6.63;1.83;;;;;;;;;;4994238;28;20037;-66
2023/10/14 05:48:54;;;;;;;8.13;1.92;;;;;;;;;;4993554;28;20027;-66
2023/10/14 05:51:20;;;;;;;10.35;1.88;;;;;;;;;;4994430;28;20057;-66
2023/10/14 05:53:46;;;;;;;12.90;2.00;;;;;;;;;;4994055;28;20018;-66
2023/10/14 05:56:14;;;;;;;13.38;1.48;;;;;;;;;;4994326;28;20026;-66
2023/10/14 05:58:45;;;;;;;8.13;1.75;;;;;;;;;;4994094;28;20026;-66
2023/10/14 06:01:11;;;;;;;11.88;1.88;;;;;;;;;;4994084;28;20034;-66
2023/10/14 06:03:43;;;;;;;5.78;1.95;;;;;;;;;;4994364;28;20105;-68
2023/10/14 06:06:14;;;;;;;6.50;1.90;;;;;;;;;;4993683;28;20530;-68
2023/10/14 06:08:40;;;;;;;18.60;3.97;;;;;;;;;;4994179;28;20030;-70
2023/10/14 06:11:05;;;;;;;10.00;1.88;;;;;;;;;;4993827;28;20064;-67
2023/10/14 06:13:34;;;;;;;8.63;1.55;;;;;;;;;;4993894;28;20018;-67
2023/10/14 06:16:04;;;;;;;5.00;1.85;;;;;;;;;;4993889;28;20022;-66
2023/10/14 06:18:30;;;;;;;4.60;1.15;;;;;;;;;;4994120;28;20454;-67
2023/10/14 06:20:57;;;;;;;3.50;1.13;;;;;;;;;;4993809;28;20054;-67
2023/10/14 06:23:26;;;;;;;6.65;1.00;;;;;;;;;;4984565;28;20041;-67
2023/10/14 06:25:51;;;;;;;5.60;1.23;;;;;;;;;;4974621;28;20022;-66
2023/10/14 06:28:17;;;;;;;4.13;0.93;;;;;;;;;;4979028;28;20498;-66
2023/10/14 06:30:43;;;;;;;4.00;1.00;;;;;;;;;;4993660;28;20422;-68
2023/10/14 06:33:08;;;;;;;2.75;0.98;;;;;;;;;;4993062;28;20499;-67
2023/10/14 06:35:34;;;;;;;3.72;1.02;;;;;;;;;;4993791;28;20108;-67
2023/10/14 06:37:59;;;;;;;4.47;1.10;;;;;;;;;;4992563;28;20030;-67
2023/10/14 06:40:32;;;;;;;3.28;1.10;;;;;;;;;;4992905;28;20018;-66
2023/10/14 06:43:00;;;;;;;5.47;1.23;;;;;;;;;;4993262;28;20014;-67
2023/10/14 06:45:31;;;;;;;4.43;0.85;;;;;;;;;;4993126;28;20025;-67
2023/10/14 06:47:57;;;;;;;2.55;0.93;;;;;;;;;;4992816;28;20026;-67
2023/10/14 06:50:25;;;;;;;1.95;0.82;;;;;;;;;;4992930;28;20022;-67
2023/10/14 06:52:53;;;;;;;4.47;1.17;;;;;;;;;;4977112;28;20463;-67
2023/10/14 06:55:22;;;;;;;3.53;0.98;;;;;;;;;;4974373;28;20482;-67
2023/10/14 06:57:51;;;;;;;13.25;1.35;;;;;;;;;;4974107;28;20530;-68
2023/10/14 07:00:22;;;;;;;2.45;1.00;;;;;;;;;;4974998;28;20030;-67
2023/10/14 07:02:47;;;;;;;4.28;0.90;;;;;;;;;;4976471;28;20050;-67
2023/10/14 07:05:15;;;;;;;1.83;0.67;;;;;;;;;;4977702;28;20106;-67
2023/10/14 07:07:42;;;;;;;3.55;1.30;;;;;;;;;;4977917;28;20018;-67
2023/10/14 07:10:07;;;;;;;3.25;0.90;;;;;;;;;;4977596;28;20133;-67
2023/10/14 07:12:37;;;;;;;10.02;1.20;;;;;;;;;;4977968;28;20042;-67
2023/10/14 07:15:05;;;;;;;4.22;0.80;;;;;;;;;;4977517;28;20023;-67
2023/10/14 07:17:31;;;;;;;2.13;0.80;;;;;;;;;;4977733;28;20464;-67
2023/10/14 07:19:56;;;;;;;1.27;0.75;;;;;;;;;;4977678;28;20022;-67
2023/10/14 07:22:21;;;;;;;2.90;0.80;;;;;;;;;;4977439;28;20433;-67
2023/10/14 07:24:47;;;;;;;4.63;1.05;;;;;;;;;;4977243;28;20261;-67
2023/10/14 07:27:13;;;;;;;1.83;0.90;;;;;;;;;;4977305;28;20061;-67
2023/10/14 07:29:39;;;;;;;3.50;0.80;;;;;;;;;;4977268;28;20487;-67
2023/10/14 07:32:04;;;;;;;2.63;1.00;;;;;;;;;;4977222;28;20007;-67
2023/10/14 07:34:30;;;;;;;4.70;0.97;;;;;;;;;;4977217;28;20570;-67
2023/10/14 07:36:55;;;;;;;5.53;1.37;;;;;;;;;;4977160;28;20605;-67
2023/10/14 07:39:27;;;;;;;1.87;0.73;;;;;;;;;;4977160;28;20031;-67
2023/10/14 07:41:52;;;;;;;3.63;0.93;;;;;;;;;;4977296;28;20240;-68
2023/10/14 07:44:19;;;;;;;2.60;0.90;;;;;;;;;;4977224;28;20026;-68
2023/10/14 07:46:44;;;;;;;2.67;0.90;;;;;;;;;;4977208;28;20093;-68
2023/10/14 07:49:09;;;;;;;4.53;1.23;;;;;;;;;;4976873;28;20467;-68
2023/10/14 07:51:34;;;;;;;3.40;1.10;;;;;;;;;;4976967;28;20015;-67
2023/10/14 07:54:00;;;;;;;3.58;1.30;;;;;;;;;;4977044;28;20027;-68
2023/10/14 07:56:25;;;;;;;2.10;1.10;;;;;;;;;;4977043;28;20463;-68
2023/10/14 07:58:52;;;;;;;4.17;1.20;;;;;;;;;;4976710;28;20046;-68
2023/10/14 08:01:18;;;;;;;4.72;1.20;;;;;;;;;;4976971;28;20318;-68
2023/10/14 08:03:43;;;;;;;3.92;1.40;;;;;;;;;;4976708;28;20376;-67
2023/10/14 08:06:10;;;;;;;4.63;1.53;;;;;;;;;;4976611;28;20023;-67
2023/10/14 08:08:42;;;;;;;3.35;1.20;;;;;;;;;;4975241;28;20272;-67
2023/10/14 08:11:07;;;;;;;;;;;;;;;;;;4976866;28;20055;-68
2023/10/14 08:13:33;;;;;;;1.63;1.20;;;;;;;;;;4975754;28;19913;-67
2023/10/14 08:15:59;;;;;;;4.53;1.02;;;;;;;;;;4976399;28;20073;-67
2023/10/14 08:18:24;;;;;;;2.70;0.90;;;;;;;;;;4976636;28;20027;-68
2023/10/14 08:20:53;;;;;;;1.88;1.20;;;;;;;;;;4976282;28;20026;-68
2023/10/14 08:23:20;;;;;;;1.70;1.30;;;;;;;;;;4976353;28;20062;-67
2023/10/14 08:25:46;;;;;;;1.35;1.25;;;;;;;;;;4976207;28;20031;-68
2023/10/14 08:28:12;;;;;;;4.80;2.05;;;;;;;;;;4976398;28;20511;-68
2023/10/14 08:30:46;;;;;;;3.65;1.50;;;;;;;;;;4976175;28;20082;-67
2023/10/14 08:33:12;;;;;;;2.15;1.15;;;;;;;;;;4976180;28;20471;-67
2023/10/14 08:35:41;;;;;;;2.78;1.10;;;;;;;;;;4976010;28;20034;-68
2023/10/14 08:38:10;;;;;;;1.38;1.10;;;;;;;;;;4975945;28;20022;-67
2023/10/14 08:40:35;;;;;;;2.88;1.08;;;;;;;;;;4976207;28;20062;-67
2023/10/14 08:43:05;;;;;;;1.20;1.10;;;;;;;;;;4975904;28;20117;-67
2023/10/14 08:45:35;;;;;;;6.20;1.00;;;;;;;;;;4976070;28;20045;-68
2023/10/14 08:48:00;;;;;;;4.80;0.90;;;;;;;;;;4975737;28;20027;-68
2023/10/14 08:50:29;;;;;;;1.92;1.20;;;;;;;;;;4976026;28;20034;-68
2023/10/14 08:52:56;;;;;;;0.82;0.70;;;;;;;;;;4975725;28;20031;-67
2023/10/14 08:55:21;;;;;;;2.45;1.15;;;;;;;;;;4975588;28;20046;-67
2023/10/14 08:57:47;;;;;;;1.10;0.90;;;;;;;;;;4975674;28;20050;-67
2023/10/14 09:00:20;;;;;;;2.58;0.80;;;;;;;;;;4975603;28;20014;-67
2023/10/14 09:02:53;;;;;;;4.32;0.68;;;;;;;;;;4975796;28;20455;-67
2023/10/14 09:05:19;;;;;;;4.13;1.10;;;;;;;;;;4975530;28;20023;-68
2023/10/14 09:07:45;;;;;;;1.27;0.63;;;;;;;;;;4975454;28;20023;-67
2023/10/14 09:10:10;;;;;;;1.00;0.68;;;;;;;;;;4975073;28;20051;-67
2023/10/14 09:12:36;;;;;;;1.30;0.57;;;;;;;;;;4975645;28;20031;-67
2023/10/14 09:15:01;;;;;;;0.77;0.60;;;;;;;;;;4975591;28;20022;-67
2023/10/14 09:17:28;;;;;;;0.73;0.60;;;;;;;;;;4975312;28;20538;-67
2023/10/14 09:19:54;;;;;;;1.35;0.80;;;;;;;;;;4975220;28;20249;-67
2023/10/14 09:22:33;;;;;;;2.83;1.00;;;;;;;;;;4975495;28;20030;-67
2023/10/14 09:24:59;;;;;;;2.83;0.73;;;;;;;;;;4974506;28;20106;-67
2023/10/14 09:27:26;;;;;;;11.13;1.20;;;;;;;;;;4975163;28;20098;-68
2023/10/14 09:29:51;;;;;;;1.80;0.80;;;;;;;;;;4975297;28;20033;-67
2023/10/14 09:32:17;;;;;;;2.65;1.15;;;;;;;;;;4975067;28;20026;-67
2023/10/14 09:34:42;;;;;;;2.88;0.85;;;;;;;;;;4975364;28;20031;-67
2023/10/14 09:37:12;;;;;;;3.10;1.20;;;;;;;;;;4975246;28;20018;-67
2023/10/14 09:39:42;;;;;;;4.20;1.00;;;;;;;;;;4975277;28;20019;-67
2023/10/14 09:42:10;;;;;;;2.58;1.20;;;;;;;;;;4974900;28;20471;-67
2023/10/14 09:44:38;;;;;;;2.28;1.08;;;;;;;;;;4974871;28;20105;-67
2023/10/14 09:47:04;;;;;;;5.95;1.30;;;;;;;;;;4974791;28;20069;-67
2023/10/14 09:49:30;;;;;;;4.25;1.20;;;;;;;;;;4974728;28;20030;-67
2023/10/14 09:51:56;;;;;;;3.80;1.33;;;;;;;;;;4974758;28;20026;-68
2023/10/14 09:54:22;;;;;;;4.55;1.10;;;;;;;;;;4974627;28;20011;-67
2023/10/14 09:56:49;;;;;;;3.03;1.15;;;;;;;;;;4974764;28;20025;-67
2023/10/14 09:59:15;;;;;;;3.47;1.30;;;;;;;;;;4974916;28;20495;-67
2023/10/14 10:01:40;;;;;;;9.73;1.40;;;;;;;;;;4974887;28;20019;-67
2023/10/14 10:04:12;;;;;;;4.97;1.10;;;;;;;;;;4974856;28;20106;-67
2023/10/14 10:06:56;;;;;;;3.55;1.27;;;;;;;;;;4974816;28;20728;-67
2023/10/14 10:09:29;;;;;;;5.18;1.58;;;;;;;;;;4974448;28;20472;-67
2023/10/14 10:11:57;;;;;;;11.60;1.92;;;;;;;;;;4974390;28;20046;-67
2023/10/14 10:14:24;;;;;;;7.72;2.10;;;;;;;;;;4974745;28;20019;-67
2023/10/14 10:16:53;;;;;;;6.28;2.03;;;;;;;;;;4974487;28;20041;-67
2023/10/14 10:19:21;;;;;;;6.65;1.95;;;;;;;;;;4974424;28;20023;-67
2023/10/14 10:22:08;;;;;;;10.02;2.15;;;;;;;;;;4974691;28;20031;-67
2023/10/14 10:24:34;;;;;;;6.03;2.10;;;;;;;;;;4974299;28;20034;-67
2023/10/14 10:27:03;;;;;;;8.55;1.90;;;;;;;;;;4974371;28;20019;-67
2023/10/14 10:29:28;;;;;;;12.90;2.38;;;;;;;;;;4974275;28;20023;-67
2023/10/14 10:32:07;;;;;;;5.93;1.88;;;;;;;;;;4974356;28;20041;-67
2023/10/14 10:34:35;;;;;;;6.22;1.73;;;;;;;;;;4974288;28;20027;-67
2023/10/14 10:37:03;;;;;;;9.45;1.65;;;;;;;;;;4978044;28;20023;-67
2023/10/14 10:39:30;;;;;;;9.85;1.90;;;;;;;;;;4978386;28;20025;-68
2023/10/14 10:41:55;;;;;;;14.30;2.10;;;;;;;;;;4992180;28;20030;-67
2023/10/14 10:44:20;;;;;;;5.53;1.50;;;;;;;;;;4996110;28;20034;-67
2023/10/14 10:46:47;;;;;;;6.37;1.60;;;;;;;;;;4997026;28;20029;-67
2023/10/14 10:49:13;;;;;;;7.45;1.50;;;;;;;;;;4991365;28;20387;-67
2023/10/14 10:51:48;;;;;;;6.57;1.55;;;;;;;;;;4987550;28;20026;-67
2023/10/14 10:54:15;;;;;;;8.57;1.65;;;;;;;;;;4996791;28;20045;-67
2023/10/14 10:56:41;;;;;;;5.55;1.90;;;;;;;;;;4988723;28;20030;-67
2023/10/14 10:59:06;;;;;;;6.55;1.42;;;;;;;;;;4997204;28;20022;-67
2023/10/14 11:01:32;;;;;;;8.95;2.17;;;;;;;;;;4996607;28;20038;-67
2023/10/14 11:04:08;;;;;;;7.32;1.88;;;;;;;;;;4996783;28;20069;-67
2023/10/14 11:06:33;;;;;;;7.95;1.50;;;;;;;;;;4996842;28;20493;-67
2023/10/14 11:09:00;;;;;;;9.05;1.70;;;;;;;;;;4996515;28;20050;-67
2023/10/14 11:11:29;;;;;;;9.57;1.65;;;;;;;;;;4996619;28;20138;-67
2023/10/14 11:13:56;;;;;;;8.52;1.83;;;;;;;;;;4995349;28;20065;-67
2023/10/14 11:16:21;;;;;;;8.27;1.60;;;;;;;;;;4984866;28;20486;-67
2023/10/14 11:18:48;;;;;;;15.27;2.23;;;;;;;;;;4992686;28;20101;-67
2023/10/14 11:21:14;;;;;;;7.60;1.83;;;;;;;;;;4993115;28;22402;-67
2023/10/14 11:23:40;;;;;;;8.35;1.67;;;;;;;;;;4990491;28;20053;-67
2023/10/14 11:26:10;;;;;;;7.63;2.25;;;;;;;;;;4995413;28;20018;-67
2023/10/14 11:28:37;;;;;;;4.63;2.03;;;;;;;;;;4995685;28;20037;-67
2023/10/14 11:31:04;;;;;;;4.22;1.95;;;;;;;;;;4991366;28;20022;-67
2023/10/14 11:33:33;;;;;;;9.43;1.88;;;;;;;;;;4995983;28;20113;-67
2023/10/14 11:35:58;;;;;;;7.85;1.80;;;;;;;;;;4995686;28;20022;-68
2023/10/14 11:38:25;;;;;;;11.30;2.50;;;;;;;;;;4996065;28;20030;-67
2023/10/14 11:40:51;;;;;;;5.25;1.90;;;;;;;;;;4995527;28;20271;-67
2023/10/14 11:43:17;;;;;;;7.53;2.20;;;;;;;;;;4995853;28;20034;-67
2023/10/14 11:45:45;;;;;;;8.70;2.22;;;;;;;;;;4995016;28;20089;-67
2023/10/14 11:48:20;;;;;;;7.03;1.75;;;;;;;;;;4994408;28;20109;-67
2023/10/14 11:50:47;;;;;;;5.65;2.17;;;;;;;;;;4995707;28;20476;-67
2023/10/14 11:53:13;;;;;;;4.38;1.23;;;;;;;;;;4995593;28;20490;-74
2023/10/14 11:55:39;;;;;;;7.40;2.33;;;;;;;;;;4995395;28;20060;-74
2023/10/14 11:58:04;;;;;;;4.73;1.60;;;;;;;;;;4995128;28;20105;-75
2023/10/14 12:00:30;;;;;;;5.10;1.70;;;;;;;;;;4994629;28;20018;-75
2023/10/14 12:02:56;;;;;;;6.70;2.05;;;;;;;;;;4995329;28;20064;-74
2023/10/14 12:05:21;;;;;;;6.90;2.20;;;;;;;;;;4994973;28;20065;-75
2023/10/14 12:07:51;;;;;;;9.13;1.90;;;;;;;;;;4995293;28;20018;-75
2023/10/14 12:10:17;;;;;;;8.13;1.50;;;;;;;;;;4994953;28;20399;-73
2023/10/14 12:12:42;;;;;;;7.65;1.85;;;;;;;;;;4995141;28;20034;-74
2023/10/14 12:15:08;;;;;;;5.82;1.63;;;;;;;;;;4994457;28;20362;-75
2023/10/14 12:17:34;;;;;;;4.75;1.73;;;;;;;;;;4994761;28;20386;-75
2023/10/14 12:20:04;;;;;;;6.57;1.88;;;;;;;;;;4994968;28;20061;-74
2023/10/14 12:22:29;;;;;;;5.18;1.40;;;;;;;;;;4994993;28;20041;-75
2023/10/14 12:24:54;;;;;;;5.90;1.40;;;;;;;;;;4995146;28;20026;-75
2023/10/14 12:27:25;;;;;;;5.13;1.90;;;;;;;;;;4994734;28;20022;-75
2023/10/14 12:29:50;;;;;;;7.20;1.70;;;;;;;;;;4994495;28;20029;-75
2023/10/14 12:32:17;;;;;;;5.70;1.80;;;;;;;;;;4993074;28;20386;-75
2023/10/14 12:34:43;;;;;;;6.03;1.70;;;;;;;;;;4994669;28;20073;-74
2023/10/14 12:37:18;;;;;;;6.50;1.88;;;;;;;;;;4994616;28;20015;-74
2023/10/14 12:39:44;;;;;;;3.50;1.60;;;;;;;;;;4994977;28;20022;-75
2023/10/14 12:42:16;;;;;;;6.00;1.67;;;;;;;;;;5002693;28;20030;-74
2023/10/14 12:44:41;;;;;;;6.28;1.95;;;;;;;;;;4994094;28;20109;-74
2023/10/14 12:47:15;;;;;;;5.00;1.93;;;;;;;;;;4994338;28;20108;-75
2023/10/14 12:49:40;;;;;;;4.90;1.60;;;;;;;;;;4987415;28;20765;-75
2023/10/14 12:52:12;;;;;;;4.85;1.70;;;;;;;;;;4994291;28;20072;-74
2023/10/14 12:54:40;;;;;;;7.28;1.63;;;;;;;;;;4994160;28;20110;-75
2023/10/14 12:57:08;;;;;;;6.43;1.85;;;;;;;;;;4994347;28;20481;-75
2023/10/14 12:59:33;;;;;;;9.15;2.30;;;;;;;;;;4993600;28;20036;-75
2023/10/14 13:01:58;;;;;;;6.40;1.70;;;;;;;;;;4990033;28;20026;-74
2023/10/14 13:04:27;;;;;;;10.70;2.38;;;;;;;;;;4994584;28;20034;-75
2023/10/14 13:06:52;;;;;;;8.07;2.03;;;;;;;;;;4994043;28;20041;-75
2023/10/14 13:09:19;;;;;;;7.53;2.00;;;;;;;;;;4993848;28;20026;-74
2023/10/14 13:11:44;;;;;;;8.68;2.22;;;;;;;;;;4993601;28;20061;-75
2023/10/14 13:14:10;;;;;;;8.13;2.40;;;;;;;;;;4992474;28;20049;-74
2023/10/14 13:16:35;;;;;;;6.93;1.90;;;;;;;;;;4994102;28;20279;-75
2023/10/14 13:19:01;;;;;;;3.65;1.90;;;;;;;;;;4994054;28;20022;-74
2023/10/14 13:21:29;;;;;;;8.38;1.95;;;;;;;;;;4993873;28;20034;-74
2023/10/14 13:23:55;;;;;;;6.50;1.95;;;;;;;;;;4993919;28;20489;-75
2023/10/14 13:26:20;;;;;;;4.05;1.83;;;;;;;;;;4993454;28;20027;-75
2023/10/14 13:28:46;;;;;;;8.02;1.98;;;;;;;;;;4993318;28;20030;-74
2023/10/14 13:31:12;;;;;;;5.75;2.05;;;;;;;;;;4993520;28;20049;-74
2023/10/14 13:33:38;;;;;;;6.22;1.70;;;;;;;;;;4994094;28;20026;-75
2023/10/14 13:36:09;;;;;;;6.90;1.55;;;;;;;;;;4993905;28;20018;-74
2023/10/14 13:38:34;;;;;;;9.90;1.48;;;;;;;;;;4993858;28;20483;-75
2023/10/14 13:40:59;;;;;;;5.75;1.60;;;;;;;;;;4994190;28;20026;-74
2023/10/14 13:43:25;;;;;;;7.00;1.90;;;;;;;;;;4993830;28;20058;-74
2023/10/14 13:45:52;;;;;;;9.93;2.10;;;;;;;;;;4994015;28;20481;-74
2023/10/14 13:48:17;;;;;;;7.00;1.77;;;;;;;;;;4993378;28;20022;-74
2023/10/14 13:50:42;;;;;;;5.80;1.80;;;;;;;;;;4993496;28;20046;-74
2023/10/14 13:53:09;;;;;;;7.17;1.90;;;;;;;;;;4993358;28;20264;-74
2023/10/14 13:55:35;;;;;;;4.97;1.40;;;;;;;;;;4993632;28;20252;-75
2023/10/14 13:58:00;;;;;;;5.35;1.67;;;;;;;;;;4993680;28;20025;-73
2023/10/14 14:00:37;;;;;;;9.70;1.53;;;;;;;;;;4993148;28;20392;-74
2023/10/14 14:03:04;;;;;;;6.15;1.52;;;;;;;;;;4993749;28;20025;-74
2023/10/14 14:05:29;;;;;;;7.88;1.83;;;;;;;;;;4993682;28;20093;-74
2023/10/14 14:07:55;;;;;;;6.40;2.13;;;;;;;;;;4993319;28;20065;-75
2023/10/14 14:10:20;;;;;;;7.53;1.40;;;;;;;;;;4992947;28;20058;-75
2023/10/14 14:12:46;;;;;;;6.72;1.63;;;;;;;;;;4993651;28;20090;-78
2023/10/14 14:15:14;;;;;;;9.50;1.60;;;;;;;;;;4992602;28;20054;-78
2023/10/14 14:17:39;;;;;;;5.28;1.45;;;;;;;;;;4993941;28;20026;-78
2023/10/14 14:20:05;;;;;;;5.47;1.70;;;;;;;;;;4992655;28;20037;-76
2023/10/14 14:22:32;;;;;;;10.07;1.55;;;;;;;;;;4993566;28;20260;-76
2023/10/14 14:24:58;;;;;;;11.70;1.65;;;;;;;;;;4993793;28;20022;-77
2023/10/14 14:27:24;;;;;;;15.88;1.88;;;;;;;;;;4993848;28;20022;-76
2023/10/14 14:29:51;;;;;;;15.18;2.05;;;;;;;;;;4994005;28;20048;-76
2023/10/14 14:32:18;;;;;;;8.93;1.40;;;;;;;;;;4993708;28;20052;-78
2023/10/14 14:34:43;;;;;;;7.00;1.42;;;;;;;;;;4993791;28;20033;-75
2023/10/14 14:37:08;;;;;;;6.60;1.23;;;;;;;;;;4993620;28;20023;-79
2023/10/14 14:39:34;;;;;;;6.80;1.17;;;;;;;;;;4993950;28;20264;-79
2023/10/14 14:42:00;;;;;;;13.68;1.77;;;;;;;;;;4992444;28;20027;-78
2023/10/14 14:44:26;;;;;;;6.80;1.13;;;;;;;;;;4993872;28;20363;-78
2023/10/14 14:46:51;;;;;;;9.55;1.30;;;;;;;;;;4993669;28;20032;-78
2023/10/14 14:49:16;;;;;;;7.03;1.20;;;;;;;;;;4993842;28;20479;-78
2023/10/14 14:51:42;;;;;;;6.20;1.25;;;;;;;;;;4993248;28;20155;-78
2023/10/14 14:54:08;;;;;;;8.73;1.23;;;;;;;;;;4992259;28;20443;-77
2023/10/14 14:56:34;;;;;;;4.47;1.20;;;;;;;;;;4993598;28;20019;-77
2023/10/14 14:59:00;;;;;;;9.27;1.30;;;;;;;;;;4993541;28;20018;-78
2023/10/14 15:01:29;;;;;;;6.20;1.10;;;;;;;;;;4993548;28;20073;-78